Time;durP1;ratioP1;P1;durP2;ratioP2;P2;SDS_P1;SDS_P2;PMS_P1;PMS_P2;Temp;Humidity;BMP_temperature;BMP_pressure;BME280_temperature;BME280_humidity;BME280_pressure;Samples;Min_cycle;Max_cycle;Signal;HPM_P1;HPM_P2
2021/08/07 00:01:22;;;;;;;;;;;27.40;95.00;;;;;;1727176;79;20290;-90
2021/08/07 00:03:49;;;;;;;;;;;27.40;94.80;;;;;;1787249;79;20131;-90
2021/08/07 00:06:23;;;;;;;;;;;27.50;94.70;;;;;;1782083;79;20229;-89
2021/08/07 00:11:57;;;;;;;;;;;27.50;94.70;;;;;;1743410;79;20147;-88
2021/08/07 00:12:11;;;;;;;;;;;27.50;94.60;;;;;;1786231;79;20207;-90
2021/08/07 00:14:36;;;;;;;;;;;27.60;94.70;;;;;;1853790;76;20898;-89
2021/08/07 00:17:20;;;;;;;;;;;27.60;94.50;;;;;;1867927;76;20203;-88
2021/08/07 00:20:09;;;;;;;;;;;27.70;94.40;;;;;;1860694;76;20320;-89
2021/08/07 00:23:22;;;;;;;;;;;;;;;;;;;;;
2021/08/07 00:25:47;;;;;;;;;;;27.70;94.00;;;;;;1843020;76;20229;-89
2021/08/07 00:34:58;;;;;;;;;;;27.90;93.60;;;;;;1782534;80;20232;-88
2021/08/07 00:37:57;;;;;;;;;;;27.90;93.60;;;;;;1758834;80;20535;-89
2021/08/07 00:40:56;;;;;;;;;;;28.00;93.60;;;;;;1777535;80;20432;-89
2021/08/07 00:46:29;;;;;;;;;;;28.10;93.50;;;;;;1819719;78;20417;-88
2021/08/07 00:49:07;;;;;;;;;;;28.20;93.20;;;;;;1715761;82;20887;-89
2021/08/07 00:52:02;;;;;;;;;;;28.20;93.10;;;;;;1717037;82;20299;-88
2021/08/07 00:54:36;;;;;;;;;;;28.20;93.10;;;;;;1713267;82;20410;-88
2021/08/07 00:57:26;;;;;;;;;;;28.30;92.80;;;;;;1715432;82;20305;-88
2021/08/07 01:00:36;;;;;;;;;;;;;;;;;;;;;
2021/08/07 01:03:44;;;;;;;;;;;;;;;;;;;;;
2021/08/07 01:24:55;;;;;;;;;;;28.90;91.50;;;;;;1627849;87;20252;-89
2021/08/07 01:33:37;;;;;;;;;;;29.10;90.70;;;;;;1865743;75;20289;-89
2021/08/07 01:36:17;;;;;;;;;;;29.20;90.80;;;;;;1732774;82;20255;-89
2021/08/07 01:39:25;;;;;;;;;;;29.20;90.20;;;;;;1676767;84;20226;-90
2021/08/07 01:42:14;;;;;;;;;;;29.30;90.20;;;;;;1732234;82;20164;-90
2021/08/07 01:44:38;;;;;;;;;;;29.40;90.20;;;;;;1676536;84;20204;-90
2021/08/07 01:47:26;;;;;;;;;;;29.40;90.00;;;;;;1684535;83;20245;-89
2021/08/07 01:50:20;;;;;;;;;;;29.50;89.80;;;;;;1660436;85;20361;-87
2021/08/07 01:53:09;;;;;;;;;;;;;;;;;;;;;
2021/08/07 01:55:50;;;;;;;;;;;29.70;89.60;;;;;;1617684;87;20190;-89
2021/08/07 01:58:21;;;;;;;;;;;29.90;89.70;;;;;;1618970;87;20309;-89
2021/08/07 02:01:02;;;;;;;;;;;30.00;87.80;;;;;;1924423;73;20200;-89
2021/08/07 02:03:33;;;;;;;;;;;30.10;86.80;;;;;;1899531;75;20176;-87
2021/08/07 02:06:02;;;;;;;;;;;30.20;86.50;;;;;;1898162;75;20276;-90
2021/08/07 02:08:33;;;;;;;;;;;30.30;87.10;;;;;;1902341;75;20229;-88
2021/08/07 02:11:03;;;;;;;;;;;30.40;87.10;;;;;;1904312;75;20488;-89
2021/08/07 02:13:34;;;;;;;;;;;30.50;86.50;;;;;;1902357;75;20150;-90
2021/08/07 02:16:04;;;;;;;;;;;30.60;85.80;;;;;;1904546;75;20211;-90
2021/08/07 02:18:34;;;;;;;;;;;30.80;86.40;;;;;;1897556;75;20190;-91
2021/08/07 02:21:04;;;;;;;;;;;30.80;85.00;;;;;;1903018;75;20169;-90
2021/08/07 02:23:34;;;;;;;;;;;30.90;84.90;;;;;;1898480;75;20539;-90
2021/08/07 02:26:05;;;;;;;;;;;31.00;84.70;;;;;;1900959;75;20253;-92
2021/08/07 02:28:35;;;;;;;;;;;31.10;83.90;;;;;;1900375;75;20182;-90
2021/08/07 02:31:05;;;;;;;;;;;31.20;83.20;;;;;;1905438;75;20524;-89
2021/08/07 02:33:35;;;;;;;;;;;31.30;83.20;;;;;;1896453;75;20438;-89
2021/08/07 02:36:05;;;;;;;;;;;31.40;83.20;;;;;;1899509;75;20257;-89
2021/08/07 02:39:21;;;;;;;;;;;31.50;82.40;;;;;;1894777;75;20181;-91
2021/08/07 02:41:13;;;;;;;;;;;31.60;83.00;;;;;;1878268;75;20202;-91
2021/08/07 02:43:47;;;;;;;;;;;31.60;82.80;;;;;;1898365;75;20214;-89
2021/08/07 02:46:17;;;;;;;;;;;31.80;81.50;;;;;;1899093;75;20319;-88
2021/08/07 02:48:50;;;;;;;;;;;31.80;80.60;;;;;;1899135;75;20253;-90
2021/08/07 02:51:28;;;;;;;;;;;31.90;80.20;;;;;;1902062;75;20240;-89
2021/08/07 02:53:58;;;;;;;;;;;32.00;79.80;;;;;;1896376;75;20241;-89
2021/08/07 02:56:27;;;;;;;;;;;32.00;79.50;;;;;;1899937;75;20718;-89
2021/08/07 02:58:57;;;;;;;;;;;32.00;79.50;;;;;;1899132;75;20185;-88
2021/08/07 03:01:26;;;;;;;;;;;32.10;79.10;;;;;;1910186;74;20153;-90
2021/08/07 03:04:00;;;;;;;;;;;32.20;78.60;;;;;;1912609;74;20267;-86
2021/08/07 03:06:49;;;;;;;;;;;32.30;78.80;;;;;;1909420;74;20216;-90
2021/08/07 03:09:22;;;;;;;;;;;32.40;78.60;;;;;;1890464;74;20276;-90
2021/08/07 03:11:52;;;;;;;;;;;32.40;78.00;;;;;;1913172;74;20276;-89
2021/08/07 03:14:21;;;;;;;;;;;32.50;77.60;;;;;;1917143;74;20316;-90
2021/08/07 03:16:58;;;;;;;;;;;32.60;76.90;;;;;;1914402;74;20539;-89
2021/08/07 03:19:37;;;;;;;;;;;32.60;77.20;;;;;;1922859;74;20208;-89
2021/08/07 03:22:17;;;;;;;;;;;32.70;77.10;;;;;;1926624;74;20126;-85
2021/08/07 03:24:49;;;;;;;;;;;32.70;77.00;;;;;;1928645;74;20122;-88
2021/08/07 03:27:19;;;;;;;;;;;32.80;75.80;;;;;;1896605;74;20452;-89
2021/08/07 03:29:48;;;;;;;;;;;;;;;;;;1909236;74;20637;-88
2021/08/07 03:32:18;;;;;;;;;;;33.00;74.50;;;;;;1901915;74;20127;-89
2021/08/07 03:34:47;;;;;;;;;;;33.10;74.80;;;;;;1914317;74;20339;-89
2021/08/07 03:37:17;;;;;;;;;;;33.20;74.40;;;;;;1904915;74;20299;-88
2021/08/07 03:39:50;;;;;;;;;;;33.10;74.00;;;;;;1910926;74;20240;-89
2021/08/07 03:42:32;;;;;;;;;;;;;;;;;;;;;
2021/08/07 03:44:57;;;;;;;;;;;33.10;73.90;;;;;;1915385;74;20154;-92
2021/08/07 03:47:27;;;;;;;;;;;33.20;75.90;;;;;;1908890;74;20163;-89
2021/08/07 03:49:58;;;;;;;;;;;33.30;73.30;;;;;;1904717;74;20159;-89
2021/08/07 03:52:29;;;;;;;;;;;33.30;73.40;;;;;;1906105;74;20225;-89
2021/08/07 03:54:59;;;;;;;;;;;33.50;73.10;;;;;;1906089;72;20211;-90
2021/08/07 03:57:28;;;;;;;;;;;33.50;72.60;;;;;;1908469;74;20156;-88
2021/08/07 04:00:03;;;;;;;;;;;33.70;72.30;;;;;;1905886;74;20175;-89
2021/08/07 04:02:36;;;;;;;;;;;33.70;71.30;;;;;;1879597;75;20183;-90
2021/08/07 04:05:06;;;;;;;;;;;33.70;71.00;;;;;;1887644;75;20084;-88
2021/08/07 04:07:38;;;;;;;;;;;33.70;71.30;;;;;;1880306;75;20793;-90
2021/08/07 04:10:08;;;;;;;;;;;33.70;72.00;;;;;;1879589;76;20391;-90
2021/08/07 04:12:44;;;;;;;;;;;33.70;71.80;;;;;;1879451;75;20510;-89
2021/08/07 04:15:16;;;;;;;;;;;33.60;71.80;;;;;;1880255;75;20212;-92
2021/08/07 04:17:49;;;;;;;;;;;33.50;71.60;;;;;;1884055;75;20188;-89
2021/08/07 04:20:20;;;;;;;;;;;33.50;72.60;;;;;;1873406;76;20485;-90
2021/08/07 04:22:51;;;;;;;;;;;33.60;70.80;;;;;;1885224;75;20217;-91
2021/08/07 04:25:36;;;;;;;;;;;33.70;71.00;;;;;;1877499;75;20132;-90
2021/08/07 04:28:10;;;;;;;;;;;33.70;71.30;;;;;;1776534;78;20244;-90
2021/08/07 04:30:40;;;;;;;;;;;33.90;71.90;;;;;;1840189;76;20241;-87
2021/08/07 04:33:10;;;;;;;;;;;34.00;71.00;;;;;;1870787;76;20119;-88
2021/08/07 04:35:40;;;;;;;;;;;34.00;71.00;;;;;;1868455;76;20205;-89
2021/08/07 04:38:10;;;;;;;;;;;34.10;69.50;;;;;;1784182;80;20211;-88
2021/08/07 04:40:43;;;;;;;;;;;34.20;70.30;;;;;;1843206;76;20158;-88
2021/08/07 04:43:12;;;;;;;;;;;34.20;69.00;;;;;;1869633;76;20181;-87
2021/08/07 04:45:47;;;;;;;;;;;34.30;68.40;;;;;;1871686;75;20269;-89
2021/08/07 04:48:13;;;;;;;;;;;34.30;69.00;;;;;;1837922;77;20182;-88
2021/08/07 04:50:43;;;;;;;;;;;34.30;70.20;;;;;;1819295;78;20208;-89
2021/08/07 04:53:12;;;;;;;;;;;34.20;69.10;;;;;;1798527;78;20194;-87
2021/08/07 04:55:42;;;;;;;;;;;34.20;69.70;;;;;;1811096;79;20192;-89
2021/08/07 04:58:14;;;;;;;;;;;34.20;69.60;;;;;;1817418;79;20327;-88
2021/08/07 05:00:44;;;;;;;;;;;34.20;68.90;;;;;;1800684;78;20184;-89
2021/08/07 05:03:14;;;;;;;;;;;34.10;69.10;;;;;;1825629;77;20530;-90
2021/08/07 05:05:44;;;;;;;;;;;34.00;69.60;;;;;;1826237;77;20188;-90
2021/08/07 05:08:14;;;;;;;;;;;34.00;68.70;;;;;;1831564;77;20480;-90
2021/08/07 05:10:59;;;;;;;;;;;34.00;68.00;;;;;;1824975;77;20174;-90
2021/08/07 05:13:29;;;;;;;;;;;34.20;69.20;;;;;;1828217;77;20157;-88
2021/08/07 05:16:03;;;;;;;;;;;34.20;68.30;;;;;;1830646;78;20165;-89
2021/08/07 05:18:33;;;;;;;;;;;34.30;67.50;;;;;;1831226;77;20543;-90
2021/08/07 05:21:05;;;;;;;;;;;34.40;67.90;;;;;;1849018;76;20157;-89
2021/08/07 05:23:34;;;;;;;;;;;34.50;66.90;;;;;;1835804;76;20465;-90
2021/08/07 05:26:05;;;;;;;;;;;34.60;66.00;;;;;;1851064;77;20144;-88
2021/08/07 05:28:36;;;;;;;;;;;34.60;66.50;;;;;;1838615;76;20272;-91
2021/08/07 05:31:07;;;;;;;;;;;34.50;67.20;;;;;;1789134;78;20190;-88
2021/08/07 05:33:37;;;;;;;;;;;34.40;66.80;;;;;;1826020;77;20182;-88
2021/08/07 05:36:20;;;;;;;;;;;34.40;65.70;;;;;;1811055;78;20248;-89
2021/08/07 05:38:50;;;;;;;;;;;34.50;65.60;;;;;;1799654;78;20179;-90
2021/08/07 05:41:19;;;;;;;;;;;34.70;65.40;;;;;;1823355;78;20198;-90
2021/08/07 05:43:50;;;;;;;;;;;35.00;63.00;;;;;;1845984;77;20136;-90
2021/08/07 05:46:23;;;;;;;;;;;35.10;62.90;;;;;;1841442;77;20187;-90
2021/08/07 05:48:56;;;;;;;;;;;35.20;63.80;;;;;;1845919;76;20189;-89
2021/08/07 05:51:30;;;;;;;;;;;35.30;63.00;;;;;;1834757;76;20216;-90
2021/08/07 05:54:03;;;;;;;;;;;35.40;62.70;;;;;;1830864;76;20124;-88
2021/08/07 05:56:33;;;;;;;;;;;35.40;60.90;;;;;;1845129;76;20465;-90
2021/08/07 05:59:17;;;;;;;;;;;35.40;61.90;;;;;;1847522;77;20237;-87
2021/08/07 06:01:34;;;;;;;;;;;35.40;62.40;;;;;;1840933;76;20200;-86
2021/08/07 06:04:04;;;;;;;;;;;35.40;61.80;;;;;;1816711;78;20186;-89
2021/08/07 06:06:33;;;;;;;;;;;35.40;62.40;;;;;;1855016;75;20201;-90
2021/08/07 06:09:03;;;;;;;;;;;35.30;61.30;;;;;;1847498;74;20273;-87
2021/08/07 06:11:33;;;;;;;;;;;35.10;61.90;;;;;;1847366;74;20250;-90
2021/08/07 06:14:02;;;;;;;;;;;34.90;62.80;;;;;;1833755;75;20172;-89
2021/08/07 06:16:32;;;;;;;;;;;34.80;63.50;;;;;;1830390;76;20162;-89
2021/08/07 06:19:02;;;;;;;;;;;34.70;64.30;;;;;;1832551;75;20237;-87
2021/08/07 06:21:32;;;;;;;;;;;34.80;64.10;;;;;;1828290;75;20169;-89
2021/08/07 06:24:02;;;;;;;;;;;34.80;63.60;;;;;;1823543;77;20181;-92
2021/08/07 06:26:31;;;;;;;;;;;34.70;64.40;;;;;;1824258;77;20198;-91
2021/08/07 06:29:01;;;;;;;;;;;34.70;64.40;;;;;;1827089;77;20252;-92
2021/08/07 06:31:31;;;;;;;;;;;34.70;64.00;;;;;;1827183;77;20249;-90
2021/08/07 06:34:02;;;;;;;;;;;34.60;65.00;;;;;;1827978;77;20133;-91
2021/08/07 06:36:34;;;;;;;;;;;34.60;64.40;;;;;;1816760;77;20451;-90
2021/08/07 06:39:04;;;;;;;;;;;34.70;64.40;;;;;;1856910;77;20188;-89
2021/08/07 06:41:33;;;;;;;;;;;34.70;63.00;;;;;;1842301;76;20211;-92
2021/08/07 06:44:06;;;;;;;;;;;34.70;62.70;;;;;;1832793;78;20221;-91
2021/08/07 06:46:36;;;;;;;;;;;34.70;64.50;;;;;;1810555;78;20455;-88
2021/08/07 06:49:06;;;;;;;;;;;34.70;63.90;;;;;;1830776;75;20513;-87
2021/08/07 06:51:35;;;;;;;;;;;34.60;63.40;;;;;;1846436;75;20130;-90
2021/08/07 06:54:05;;;;;;;;;;;34.70;64.10;;;;;;1796355;76;20200;-86
2021/08/07 06:56:35;;;;;;;;;;;34.70;63.30;;;;;;1831813;76;20248;-90
2021/08/07 06:59:05;;;;;;;;;;;34.80;63.00;;;;;;1820132;77;20176;-91
2021/08/07 07:01:37;;;;;;;;;;;34.90;62.70;;;;;;1853547;76;20288;-90
2021/08/07 07:04:09;;;;;;;;;;;34.90;62.50;;;;;;1860402;76;20475;-92
2021/08/07 07:06:41;;;;;;;;;;;34.90;62.70;;;;;;1828955;76;20203;-91
2021/08/07 07:09:11;;;;;;;;;;;34.80;62.70;;;;;;1901072;74;20164;-92
2021/08/07 07:11:47;;;;;;;;;;;34.80;62.90;;;;;;1900149;74;20313;-89
2021/08/07 07:14:22;;;;;;;;;;;34.60;63.30;;;;;;1899298;74;20255;-91
2021/08/07 07:16:54;;;;;;;;;;;34.50;63.30;;;;;;1902178;74;20226;-92
2021/08/07 07:19:32;;;;;;;;;;;34.50;63.00;;;;;;1903458;74;20157;-90
2021/08/07 07:22:00;;;;;;;;;;;34.40;62.40;;;;;;1876886;74;20150;-92
2021/08/07 07:24:59;;;;;;;;;;;34.40;62.80;;;;;;1905504;74;20197;-93
2021/08/07 07:27:54;;;;;;;;;;;34.30;63.70;;;;;;1889758;72;20204;-90
2021/08/07 07:31:00;;;;;;;;;;;34.30;64.10;;;;;;1904700;74;20084;-90
2021/08/07 07:33:17;;;;;;;;;;;34.20;63.40;;;;;;1833958;77;20206;-90
2021/08/07 07:35:46;;;;;;;;;;;34.20;63.60;;;;;;1882632;76;20521;-89
2021/08/07 07:38:18;;;;;;;;;;;34.20;63.20;;;;;;1859607;76;20185;-90
2021/08/07 07:40:48;;;;;;;;;;;34.20;63.10;;;;;;1905621;74;20195;-90
2021/08/07 07:43:21;;;;;;;;;;;34.20;63.00;;;;;;1900547;74;20195;-90
2021/08/07 07:45:51;;;;;;;;;;;34.20;63.30;;;;;;1876770;74;20248;-90
2021/08/07 07:48:23;;;;;;;;;;;34.10;63.50;;;;;;1896288;74;20131;-90
2021/08/07 07:50:54;;;;;;;;;;;34.10;64.40;;;;;;1900534;74;20250;-90
2021/08/07 07:53:25;;;;;;;;;;;34.10;64.10;;;;;;1906481;74;20246;-89
2021/08/07 07:56:00;;;;;;;;;;;34.10;64.70;;;;;;1900456;74;20194;-91
2021/08/07 07:58:31;;;;;;;;;;;34.10;65.00;;;;;;1909812;74;20180;-88
2021/08/07 08:01:03;;;;;;;;;;;34.10;64.70;;;;;;1905419;74;20127;-90
2021/08/07 08:03:35;;;;;;;;;;;34.10;65.00;;;;;;1905481;74;20453;-89
2021/08/07 08:06:15;;;;;;;;;;;34.10;65.10;;;;;;1903071;74;20553;-87
2021/08/07 08:08:50;;;;;;;;;;;34.10;66.60;;;;;;1897482;75;20214;-91
2021/08/07 08:11:24;;;;;;;;;;;33.90;73.70;;;;;;1897209;74;20150;-91
2021/08/07 08:13:53;;;;;;;;;;;33.40;75.20;;;;;;1903918;74;20190;-89
2021/08/07 08:16:23;;;;;;;;;;;33.00;79.20;;;;;;1907619;74;20939;-91
2021/08/07 08:18:57;;;;;;;;;;;32.50;77.80;;;;;;1910660;74;20257;-88
2021/08/07 08:21:36;;;;;;;;;;;32.20;79.80;;;;;;1898073;74;20119;-91
2021/08/07 08:24:59;;;;;;;;;;;32.10;82.30;;;;;;1852070;75;20158;-92
2021/08/07 08:27:28;;;;;;;;;;;32.00;82.90;;;;;;1873262;74;20112;-91
2021/08/07 08:29:58;;;;;;;;;;;32.00;82.70;;;;;;1874138;75;20176;-91
2021/08/07 08:32:28;;;;;;;;;;;32.10;83.40;;;;;;1874846;76;20440;-89
2021/08/07 08:34:57;;;;;;;;;;;32.10;83.20;;;;;;1877173;75;20255;-91
2021/08/07 08:37:27;;;;;;;;;;;32.20;82.80;;;;;;1869502;75;20162;-93
2021/08/07 08:39:56;;;;;;;;;;;32.20;82.00;;;;;;1878900;75;20203;-92
2021/08/07 08:42:26;;;;;;;;;;;32.20;81.20;;;;;;1869609;76;20176;-92
2021/08/07 08:44:56;;;;;;;;;;;32.20;81.60;;;;;;1869809;75;20133;-92
2021/08/07 08:47:26;;;;;;;;;;;32.30;80.80;;;;;;1873093;75;20252;-93
2021/08/07 08:49:56;;;;;;;;;;;32.40;81.40;;;;;;1864859;75;20468;-91
2021/08/07 08:52:29;;;;;;;;;;;32.40;80.30;;;;;;1877657;75;20265;-92
2021/08/07 08:54:58;;;;;;;;;;;32.50;81.80;;;;;;1867645;75;20197;-93
2021/08/07 08:57:27;;;;;;;;;;;32.50;79.50;;;;;;1875353;75;20223;-90
2021/08/07 08:59:57;;;;;;;;;;;32.60;81.20;;;;;;1871476;76;20249;-91
2021/08/07 09:02:27;;;;;;;;;;;32.60;81.10;;;;;;1879416;75;20188;-92
2021/08/07 09:04:57;;;;;;;;;;;32.70;80.30;;;;;;1876123;75;20250;-91
2021/08/07 09:07:27;;;;;;;;;;;32.70;81.10;;;;;;1872151;75;20160;-91
2021/08/07 09:09:57;;;;;;;;;;;32.80;80.60;;;;;;1869026;75;20188;-92
2021/08/07 09:12:28;;;;;;;;;;;32.80;80.60;;;;;;1862654;76;20247;-91
2021/08/07 09:14:58;;;;;;;;;;;32.80;80.70;;;;;;1883248;75;20322;-92
2021/08/07 09:17:29;;;;;;;;;;;32.80;81.50;;;;;;1881645;75;20164;-89
2021/08/07 09:20:01;;;;;;;;;;;32.80;81.10;;;;;;1878426;75;20195;-89
2021/08/07 09:22:31;;;;;;;;;;;32.80;81.00;;;;;;1876560;75;20177;-92
2021/08/07 09:25:03;;;;;;;;;;;32.80;81.60;;;;;;1869331;75;20215;-90
2021/08/07 09:27:34;;;;;;;;;;;32.90;81.60;;;;;;1869035;75;20253;-90
2021/08/07 09:30:04;;;;;;;;;;;32.90;81.70;;;;;;1880334;75;20195;-90
2021/08/07 09:32:35;;;;;;;;;;;33.00;81.90;;;;;;1855031;75;20204;-92
2021/08/07 09:35:06;;;;;;;;;;;33.00;81.10;;;;;;1882562;75;20243;-92
2021/08/07 09:37:36;;;;;;;;;;;33.00;82.00;;;;;;1875100;75;20133;-93
2021/08/07 09:40:12;;;;;;;;;;;33.00;81.80;;;;;;1888681;75;20250;-90
2021/08/07 09:42:43;;;;;;;;;;;33.10;82.50;;;;;;1877020;75;20176;-90
2021/08/07 09:45:13;;;;;;;;;;;33.10;74.80;;;;;;1877689;76;20199;-88
2021/08/07 09:47:44;;;;;;;;;;;33.20;73.80;;;;;;1871617;75;20307;-90
2021/08/07 09:50:15;;;;;;;;;;;33.30;72.70;;;;;;1879837;75;20408;-92
2021/08/07 09:52:45;;;;;;;;;;;33.40;73.10;;;;;;1870798;76;20428;-91
2021/08/07 09:55:14;;;;;;;;;;;33.50;72.50;;;;;;1874757;76;20187;-87
2021/08/07 09:57:44;;;;;;;;;;;33.60;70.10;;;;;;1881151;75;20186;-90
2021/08/07 10:00:14;;;;;;;;;;;33.70;70.90;;;;;;1907367;75;20225;-89
2021/08/07 10:02:44;;;;;;;;;;;33.80;70.60;;;;;;1886404;75;20187;-91
2021/08/07 10:05:15;;;;;;;;;;;33.80;70.40;;;;;;1875655;75;20618;-91
2021/08/07 10:07:48;;;;;;;;;;;33.90;70.60;;;;;;1879167;75;20200;-91
2021/08/07 10:10:21;;;;;;;;;;;33.90;69.40;;;;;;1876264;74;20209;-89
2021/08/07 10:12:51;;;;;;;;;;;34.00;69.20;;;;;;1874780;75;20197;-85
2021/08/07 10:15:22;;;;;;;;;;;34.00;69.30;;;;;;1873592;75;20215;-92
2021/08/07 10:17:51;;;;;;;;;;;34.00;67.70;;;;;;1878371;75;20265;-91
2021/08/07 10:20:21;;;;;;;;;;;34.00;68.50;;;;;;1888338;75;20176;-90
2021/08/07 10:22:51;;;;;;;;;;;33.90;69.20;;;;;;1882242;75;20258;-90
2021/08/07 10:25:23;;;;;;;;;;;33.90;69.60;;;;;;1877327;75;20238;-92
2021/08/07 10:27:54;;;;;;;;;;;33.90;68.40;;;;;;1864545;75;20251;-89
2021/08/07 10:30:24;;;;;;;;;;;33.90;69.10;;;;;;1887863;75;20193;-91
2021/08/07 10:32:56;;;;;;;;;;;33.90;69.60;;;;;;1872234;75;20175;-91
2021/08/07 10:35:28;;;;;;;;;;;33.80;67.80;;;;;;1885397;75;20140;-91
2021/08/07 10:37:59;;;;;;;;;;;33.80;68.20;;;;;;1900656;75;20149;-91
2021/08/07 10:40:29;;;;;;;;;;;33.70;69.90;;;;;;1880075;75;20438;-91
2021/08/07 10:42:59;;;;;;;;;;;33.70;72.40;;;;;;1886149;75;20571;-88
2021/08/07 10:45:28;;;;;;;;;;;33.60;73.60;;;;;;1884360;75;20252;-89
2021/08/07 10:48:07;;;;;;;;;;;33.50;78.10;;;;;;1853800;75;20213;-90
2021/08/07 10:50:56;;;;;;;;;;;33.50;76.30;;;;;;1883491;75;20113;-90
2021/08/07 10:53:29;;;;;;;;;;;33.30;76.00;;;;;;1877863;75;20148;-90
2021/08/07 10:55:58;;;;;;;;;;;33.30;78.10;;;;;;1873217;75;20459;-91
2021/08/07 10:58:29;;;;;;;;;;;33.20;77.80;;;;;;1875754;75;20228;-92
2021/08/07 11:01:00;;;;;;;;;;;33.10;78.30;;;;;;1872372;75;20588;-91
2021/08/07 11:03:31;;;;;;;;;;;33.10;72.50;;;;;;1875091;75;20252;-91
2021/08/07 11:06:04;;;;;;;;;;;33.10;71.20;;;;;;1871824;75;20201;-90
2021/08/07 11:08:36;;;;;;;;;;;33.10;70.90;;;;;;1899411;75;20244;-91
2021/08/07 11:11:06;;;;;;;;;;;33.10;74.70;;;;;;1890033;75;20211;-91
2021/08/07 11:13:37;;;;;;;;;;;33.10;75.20;;;;;;1879870;75;20195;-92
2021/08/07 11:16:08;;;;;;;;;;;33.10;78.90;;;;;;1880233;75;20193;-93
2021/08/07 11:18:38;;;;;;;;;;;33.00;78.00;;;;;;1881600;75;20223;-94
2021/08/07 11:21:07;;;;;;;;;;;32.90;79.70;;;;;;1883281;75;20228;-92
2021/08/07 11:23:40;;;;;;;;;;;32.90;79.60;;;;;;1876021;75;20184;-92
2021/08/07 11:26:13;;;;;;;;;;;32.80;80.00;;;;;;1875127;75;20156;-93
2021/08/07 11:28:44;;;;;;;;;;;32.80;80.50;;;;;;1863381;75;20204;-90
2021/08/07 11:31:15;;;;;;;;;;;32.70;79.90;;;;;;1882295;75;20387;-90
2021/08/07 11:33:46;;;;;;;;;;;32.70;79.80;;;;;;1876457;75;20112;-90
2021/08/07 11:36:18;;;;;;;;;;;32.60;79.50;;;;;;1883127;75;20200;-88
2021/08/07 11:38:50;;;;;;;;;;;32.60;80.10;;;;;;1881210;75;20132;-93
2021/08/07 11:41:28;;;;;;;;;;;32.60;80.40;;;;;;1897203;75;20200;-91
2021/08/07 11:44:15;;;;;;;;;;;32.60;80.10;;;;;;1811216;78;20169;-93
2021/08/07 11:46:46;;;;;;;;;;;32.50;80.80;;;;;;1806401;78;20207;-91
2021/08/07 11:49:16;;;;;;;;;;;32.50;80.80;;;;;;1791487;79;20241;-92
2021/08/07 11:51:45;;;;;;;;;;;32.50;80.70;;;;;;1849707;77;20287;-90
2021/08/07 11:54:35;;;;;;;;;;;32.40;81.10;;;;;;1844244;77;20211;-92
2021/08/07 11:57:05;;;;;;;;;;;32.40;81.30;;;;;;1804106;78;20173;-87
2021/08/07 11:59:36;;;;;;;;;;;32.40;82.40;;;;;;1805396;78;20521;-91
2021/08/07 12:02:08;;;;;;;;;;;32.40;82.90;;;;;;1889458;75;20120;-90
2021/08/07 12:04:39;;;;;;;;;;;32.40;82.70;;;;;;1874906;75;20125;-90
2021/08/07 12:07:10;;;;;;;;;;;32.30;82.60;;;;;;1853830;75;20204;-92
2021/08/07 12:09:47;;;;;;;;;;;32.30;84.80;;;;;;1893426;75;20155;-92
2021/08/07 12:12:17;;;;;;;;;;;32.30;85.20;;;;;;1874302;75;20460;-92
2021/08/07 12:14:46;;;;;;;;;;;32.30;86.70;;;;;;1848597;77;20163;-92
2021/08/07 12:17:16;;;;;;;;;;;32.20;86.60;;;;;;1893912;75;20189;-89
2021/08/07 12:19:47;;;;;;;;;;;32.10;78.20;;;;;;1882595;75;20608;-91
2021/08/07 12:22:17;;;;;;;;;;;32.10;78.50;;;;;;1888500;75;20560;-90
2021/08/07 12:24:47;;;;;;;;;;;32.10;77.20;;;;;;1885251;75;20225;-92
2021/08/07 12:27:17;;;;;;;;;;;32.10;76.30;;;;;;1894944;75;20199;-93
2021/08/07 12:29:47;;;;;;;;;;;32.10;76.40;;;;;;1889461;75;20199;-91
2021/08/07 12:32:18;;;;;;;;;;;32.20;76.60;;;;;;1884413;75;20226;-90
2021/08/07 12:34:48;;;;;;;;;;;32.20;76.60;;;;;;1886106;75;20121;-92
2021/08/07 12:37:20;;;;;;;;;;;32.20;76.50;;;;;;1891334;75;20161;-92
2021/08/07 12:39:52;;;;;;;;;;;32.20;76.90;;;;;;1886767;75;20191;-91
2021/08/07 12:42:23;;;;;;;;;;;32.20;76.20;;;;;;1886997;75;20263;-89
2021/08/07 12:44:54;;;;;;;;;;;32.10;76.10;;;;;;1886309;75;20237;-91
2021/08/07 12:47:25;;;;;;;;;;;32.10;76.10;;;;;;1889525;75;20292;-91
2021/08/07 12:49:54;;;;;;;;;;;32.10;76.70;;;;;;1896409;73;20153;-89
2021/08/07 12:52:24;;;;;;;;;;;32.10;76.90;;;;;;1890036;73;20208;-90
2021/08/07 12:54:55;;;;;;;;;;;32.10;76.60;;;;;;1888472;73;20231;-91
2021/08/07 12:57:25;;;;;;;;;;;32.00;76.50;;;;;;1891259;73;20195;-92
2021/08/07 12:59:55;;;;;;;;;;;32.00;76.70;;;;;;1894549;73;20241;-89
2021/08/07 13:02:44;;;;;;;;;;;31.90;76.70;;;;;;1884865;74;20222;-92
2021/08/07 13:05:15;;;;;;;;;;;31.90;77.00;;;;;;1888973;75;20251;-90
2021/08/07 13:08:06;;;;;;;;;;;31.90;77.40;;;;;;1803929;78;20248;-93
2021/08/07 13:10:39;;;;;;;;;;;31.80;77.30;;;;;;1844196;77;20397;-92
2021/08/07 13:13:13;;;;;;;;;;;31.80;77.40;;;;;;1844254;77;20300;-89
2021/08/07 13:15:52;;;;;;;;;;;31.70;77.50;;;;;;1878967;75;20245;-91
2021/08/07 13:18:36;;;;;;;;;;;31.70;77.90;;;;;;1891206;75;20200;-93
2021/08/07 13:21:17;;;;;;;;;;;31.70;78.00;;;;;;1891786;75;20201;-93
2021/08/07 13:23:47;;;;;;;;;;;31.60;78.20;;;;;;1895556;75;20187;-91
2021/08/07 13:26:17;;;;;;;;;;;31.60;78.20;;;;;;1892401;75;20751;-90
2021/08/07 13:28:47;;;;;;;;;;;31.60;78.70;;;;;;1883052;75;20191;-92
2021/08/07 13:31:18;;;;;;;;;;;31.50;78.60;;;;;;1894409;74;20193;-90
2021/08/07 13:33:50;;;;;;;;;;;31.50;78.70;;;;;;1906411;74;20201;-92
2021/08/07 13:36:21;;;;;;;;;;;31.40;78.70;;;;;;1900184;74;20163;-91
2021/08/07 13:39:00;;;;;;;;;;;31.40;79.00;;;;;;1873527;75;20161;-93
2021/08/07 13:41:27;;;;;;;;;;;31.40;79.20;;;;;;1907934;74;20234;-93
2021/08/07 13:43:57;;;;;;;;;;;31.40;79.40;;;;;;1908321;74;20176;-94
2021/08/07 13:46:27;;;;;;;;;;;31.40;79.40;;;;;;1902487;74;20210;-93
2021/08/07 13:48:56;;;;;;;;;;;31.40;79.60;;;;;;1892719;74;20169;-89
2021/08/07 13:51:28;;;;;;;;;;;31.40;79.70;;;;;;1902356;74;20397;-89
2021/08/07 13:54:18;;;;;;;;;;;31.40;80.00;;;;;;1895983;74;20172;-90
2021/08/07 13:56:58;;;;;;;;;;;31.30;79.90;;;;;;1899069;74;20555;-91
2021/08/07 13:59:26;;;;;;;;;;;31.30;79.90;;;;;;1905718;74;20183;-91
2021/08/07 14:01:56;;;;;;;;;;;31.20;79.90;;;;;;1917396;74;20182;-90
2021/08/07 14:04:26;;;;;;;;;;;31.20;80.20;;;;;;1867240;74;20255;-91
2021/08/07 14:06:56;;;;;;;;;;;31.20;80.30;;;;;;1899536;74;20468;-92
2021/08/07 14:09:26;;;;;;;;;;;31.20;80.30;;;;;;1901421;74;20226;-91
2021/08/07 14:11:55;;;;;;;;;;;31.20;80.60;;;;;;1908082;74;20220;-91
2021/08/07 14:14:25;;;;;;;;;;;31.20;80.90;;;;;;1910073;74;20208;-92
2021/08/07 14:17:02;;;;;;;;;;;31.10;81.00;;;;;;1894743;74;20240;-90
2021/08/07 14:19:30;;;;;;;;;;;31.20;81.20;;;;;;1906643;74;20254;-91
2021/08/07 14:22:04;;;;;;;;;;;31.10;81.10;;;;;;1904657;74;20200;-90
2021/08/07 14:24:33;;;;;;;;;;;31.10;81.40;;;;;;1864138;74;20134;-91
2021/08/07 14:27:04;;;;;;;;;;;31.00;81.60;;;;;;1871446;75;20156;-92
2021/08/07 14:29:34;;;;;;;;;;;31.00;81.70;;;;;;1888932;75;20215;-88
2021/08/07 14:32:04;;;;;;;;;;;31.00;81.90;;;;;;1896568;75;20516;-90
2021/08/07 14:34:34;;;;;;;;;;;31.00;82.10;;;;;;1891872;75;20180;-92
2021/08/07 14:37:04;;;;;;;;;;;31.00;82.30;;;;;;1872834;75;20192;-91
2021/08/07 14:39:34;;;;;;;;;;;30.90;82.20;;;;;;1875768;76;20507;-92
2021/08/07 14:42:04;;;;;;;;;;;31.00;82.30;;;;;;1881375;76;20226;-93
2021/08/07 14:44:33;;;;;;;;;;;30.90;82.50;;;;;;1892213;75;20498;-91
2021/08/07 14:47:15;;;;;;;;;;;30.90;82.70;;;;;;1882314;75;20188;-93
2021/08/07 14:49:41;;;;;;;;;;;30.90;82.80;;;;;;1804681;76;20167;-91
2021/08/07 14:52:11;;;;;;;;;;;30.90;83.10;;;;;;1831580;78;20177;-93
2021/08/07 14:54:40;;;;;;;;;;;30.80;83.20;;;;;;1829735;77;20252;-90
2021/08/07 14:57:10;;;;;;;;;;;30.80;83.10;;;;;;1842945;78;20209;-91
2021/08/07 14:59:40;;;;;;;;;;;30.80;83.40;;;;;;1846220;77;20185;-93
2021/08/07 15:02:10;;;;;;;;;;;30.80;83.30;;;;;;1895551;75;20232;-90
2021/08/07 15:04:40;;;;;;;;;;;30.80;83.60;;;;;;1888870;75;20584;-90
2021/08/07 15:09:49;;;;;;;;;;;30.70;83.70;;;;;;1745631;80;20295;-93
2021/08/07 15:12:19;;;;;;;;;;;30.70;83.80;;;;;;1781015;79;20263;-93
2021/08/07 15:14:52;;;;;;;;;;;30.70;84.10;;;;;;1792839;79;20223;-92
2021/08/07 15:17:23;;;;;;;;;;;30.60;84.30;;;;;;1784252;79;20238;-93
2021/08/07 15:22:58;;;;;;;;;;;30.60;84.50;;;;;;1745140;80;20212;-93
2021/08/07 15:25:28;;;;;;;;;;;30.50;84.60;;;;;;1734985;81;20351;-90
2021/08/07 15:27:58;;;;;;;;;;;30.50;84.90;;;;;;1734592;81;20213;-92
2021/08/07 15:30:28;;;;;;;;;;;30.50;85.20;;;;;;1734201;81;20191;-92
2021/08/07 15:33:01;;;;;;;;;;;30.40;85.10;;;;;;1751843;78;20220;-91
2021/08/07 15:35:46;;;;;;;;;;;30.50;85.20;;;;;;1952148;70;20189;-92